<?xml version="1.0" encoding="utf-8"?>
<gpx xmlns:xsi="http://www.w3.org/2001/XMLSchema-instance" xmlns:xsd="http://www.w3.org/2001/XMLSchema" version="1.1" creator="Shapelink.com" xmlns="http://www.topografix.com/GPX/1/1" xmlns:gpxtpx="http://www.garmin.com/xmlschemas/TrackPointExtension/v1">
  <metadata>
    <name>Løping 4.79 km, 2012-06-03</name>
    <desc></desc>
    <author><name>Mikael Blom</name></author> 
    <time>2012-06-03T17:00:58Z</time>
  </metadata>
  <trk>
    <name>Løping 4.79 km, 2012-06-03</name>
    <trkseg>
      <trkpt lat="59.9550663" lon="17.714423">
        <ele>40.0321</ele>
        <time>2012-06-03T17:00:58Z</time>
      </trkpt>
      <trkpt lat="59.9550251" lon="17.7145084">
        <ele>41.474</ele>
        <time>2012-06-03T17:01:00Z</time>
      </trkpt>
      <trkpt lat="59.9549222" lon="17.7147079">
        <ele>42.4354</ele>
        <time>2012-06-03T17:01:05Z</time>
      </trkpt>
      <trkpt lat="59.9548692" lon="17.7147742">
        <ele>42.4354</ele>
        <time>2012-06-03T17:01:07Z</time>
      </trkpt>
      <trkpt lat="59.9546853" lon="17.7148611">
        <ele>46.7612</ele>
        <time>2012-06-03T17:01:13Z</time>
      </trkpt>
      <trkpt lat="59.9545506" lon="17.7148691">
        <ele>47.7225</ele>
        <time>2012-06-03T17:01:18Z</time>
      </trkpt>
      <trkpt lat="59.9544112" lon="17.7148709">
        <ele>51.5679</ele>
        <time>2012-06-03T17:01:24Z</time>
      </trkpt>
      <trkpt lat="59.9543071" lon="17.7148638">
        <ele>53.4905</ele>
        <time>2012-06-03T17:01:28Z</time>
      </trkpt>
      <trkpt lat="59.9542077" lon="17.7149104">
        <ele>55.8938</ele>
        <time>2012-06-03T17:01:33Z</time>
      </trkpt>
      <trkpt lat="59.9540752" lon="17.7149947">
        <ele>60.2197</ele>
        <time>2012-06-03T17:01:39Z</time>
      </trkpt>
      <trkpt lat="59.9539241" lon="17.7149828">
        <ele>55.8938</ele>
        <time>2012-06-03T17:01:45Z</time>
      </trkpt>
      <trkpt lat="59.9538274" lon="17.7150239">
        <ele>54.9324</ele>
        <time>2012-06-03T17:01:49Z</time>
      </trkpt>
      <trkpt lat="59.953714" lon="17.7151057">
        <ele>55.4131</ele>
        <time>2012-06-03T17:01:54Z</time>
      </trkpt>
      <trkpt lat="59.9536125" lon="17.7151897">
        <ele>56.3745</ele>
        <time>2012-06-03T17:01:59Z</time>
      </trkpt>
      <trkpt lat="59.9534895" lon="17.7153144">
        <ele>55.4131</ele>
        <time>2012-06-03T17:02:06Z</time>
      </trkpt>
      <trkpt lat="59.9534578" lon="17.7153576">
        <ele>53.9712</ele>
        <time>2012-06-03T17:02:08Z</time>
      </trkpt>
      <trkpt lat="59.9533872" lon="17.715473">
        <ele>53.0098</ele>
        <time>2012-06-03T17:02:12Z</time>
      </trkpt>
      <trkpt lat="59.9533384" lon="17.7155222">
        <ele>51.0872</ele>
        <time>2012-06-03T17:02:15Z</time>
      </trkpt>
      <trkpt lat="59.9532219" lon="17.7156261">
        <ele>48.2034</ele>
        <time>2012-06-03T17:02:21Z</time>
      </trkpt>
      <trkpt lat="59.9531402" lon="17.7157412">
        <ele>44.358</ele>
        <time>2012-06-03T17:02:26Z</time>
      </trkpt>
      <trkpt lat="59.9530893" lon="17.715945">
        <ele>46.2806</ele>
        <time>2012-06-03T17:02:30Z</time>
      </trkpt>
      <trkpt lat="59.9530356" lon="17.7162064">
        <ele>48.684</ele>
        <time>2012-06-03T17:02:35Z</time>
      </trkpt>
      <trkpt lat="59.9529791" lon="17.7164768">
        <ele>51.0872</ele>
        <time>2012-06-03T17:02:40Z</time>
      </trkpt>
      <trkpt lat="59.9529698" lon="17.7166223">
        <ele>52.5292</ele>
        <time>2012-06-03T17:02:43Z</time>
      </trkpt>
      <trkpt lat="59.9529735" lon="17.7169277">
        <ele>54.9324</ele>
        <time>2012-06-03T17:02:49Z</time>
      </trkpt>
      <trkpt lat="59.9529325" lon="17.717214">
        <ele>54.4518</ele>
        <time>2012-06-03T17:02:55Z</time>
      </trkpt>
      <trkpt lat="59.9528792" lon="17.7174433">
        <ele>53.9712</ele>
        <time>2012-06-03T17:03:00Z</time>
      </trkpt>
      <trkpt lat="59.9528191" lon="17.7175766">
        <ele>52.0486</ele>
        <time>2012-06-03T17:03:04Z</time>
      </trkpt>
      <trkpt lat="59.9527593" lon="17.7177293">
        <ele>50.6066</ele>
        <time>2012-06-03T17:03:08Z</time>
      </trkpt>
      <trkpt lat="59.9526821" lon="17.7179329">
        <ele>48.684</ele>
        <time>2012-06-03T17:03:14Z</time>
      </trkpt>
      <trkpt lat="59.9526153" lon="17.718163">
        <ele>46.7612</ele>
        <time>2012-06-03T17:03:20Z</time>
      </trkpt>
      <trkpt lat="59.9525637" lon="17.7184261">
        <ele>50.126</ele>
        <time>2012-06-03T17:03:25Z</time>
      </trkpt>
      <trkpt lat="59.9525226" lon="17.7186412">
        <ele>49.6453</ele>
        <time>2012-06-03T17:03:30Z</time>
      </trkpt>
      <trkpt lat="59.9524821" lon="17.7188888">
        <ele>51.5679</ele>
        <time>2012-06-03T17:03:35Z</time>
      </trkpt>
      <trkpt lat="59.9524746" lon="17.7189426">
        <ele>51.5679</ele>
        <time>2012-06-03T17:03:36Z</time>
      </trkpt>
      <trkpt lat="59.9524469" lon="17.7191579">
        <ele>53.9712</ele>
        <time>2012-06-03T17:03:40Z</time>
      </trkpt>
      <trkpt lat="59.9524169" lon="17.7194509">
        <ele>54.4518</ele>
        <time>2012-06-03T17:03:46Z</time>
      </trkpt>
      <trkpt lat="59.9524283" lon="17.7196245">
        <ele>52.5292</ele>
        <time>2012-06-03T17:03:50Z</time>
      </trkpt>
      <trkpt lat="59.9525092" lon="17.7199158">
        <ele>52.5292</ele>
        <time>2012-06-03T17:03:57Z</time>
      </trkpt>
      <trkpt lat="59.9525392" lon="17.720108">
        <ele>52.0486</ele>
        <time>2012-06-03T17:04:01Z</time>
      </trkpt>
      <trkpt lat="59.9525393" lon="17.7204381">
        <ele>53.0098</ele>
        <time>2012-06-03T17:04:07Z</time>
      </trkpt>
      <trkpt lat="59.9525397" lon="17.720737">
        <ele>53.0098</ele>
        <time>2012-06-03T17:04:13Z</time>
      </trkpt>
      <trkpt lat="59.9525523" lon="17.7209852">
        <ele>54.9324</ele>
        <time>2012-06-03T17:04:18Z</time>
      </trkpt>
      <trkpt lat="59.9525511" lon="17.7213061">
        <ele>55.8938</ele>
        <time>2012-06-03T17:04:24Z</time>
      </trkpt>
      <trkpt lat="59.9525562" lon="17.7215713">
        <ele>55.8938</ele>
        <time>2012-06-03T17:04:30Z</time>
      </trkpt>
      <trkpt lat="59.9525674" lon="17.7217583">
        <ele>55.4131</ele>
        <time>2012-06-03T17:04:34Z</time>
      </trkpt>
      <trkpt lat="59.9526065" lon="17.7219998">
        <ele>55.4131</ele>
        <time>2012-06-03T17:04:39Z</time>
      </trkpt>
      <trkpt lat="59.9525935" lon="17.7222558">
        <ele>56.3745</ele>
        <time>2012-06-03T17:04:44Z</time>
      </trkpt>
      <trkpt lat="59.9525502" lon="17.7224723">
        <ele>54.9324</ele>
        <time>2012-06-03T17:04:48Z</time>
      </trkpt>
      <trkpt lat="59.9525144" lon="17.7227148">
        <ele>54.9324</ele>
        <time>2012-06-03T17:04:53Z</time>
      </trkpt>
      <trkpt lat="59.9525222" lon="17.7229558">
        <ele>53.9712</ele>
        <time>2012-06-03T17:04:58Z</time>
      </trkpt>
      <trkpt lat="59.9525423" lon="17.7231893">
        <ele>54.9324</ele>
        <time>2012-06-03T17:05:03Z</time>
      </trkpt>
      <trkpt lat="59.9525999" lon="17.7234514">
        <ele>53.4905</ele>
        <time>2012-06-03T17:05:09Z</time>
      </trkpt>
      <trkpt lat="59.9526745" lon="17.7236475">
        <ele>54.4518</ele>
        <time>2012-06-03T17:05:14Z</time>
      </trkpt>
      <trkpt lat="59.9527256" lon="17.7238741">
        <ele>53.0098</ele>
        <time>2012-06-03T17:05:19Z</time>
      </trkpt>
      <trkpt lat="59.9527202" lon="17.7240745">
        <ele>52.5292</ele>
        <time>2012-06-03T17:05:23Z</time>
      </trkpt>
      <trkpt lat="59.952648" lon="17.7242932">
        <ele>51.5679</ele>
        <time>2012-06-03T17:05:28Z</time>
      </trkpt>
      <trkpt lat="59.9526335" lon="17.7243341">
        <ele>51.0872</ele>
        <time>2012-06-03T17:05:29Z</time>
      </trkpt>
      <trkpt lat="59.9525515" lon="17.7245885">
        <ele>52.0486</ele>
        <time>2012-06-03T17:05:35Z</time>
      </trkpt>
      <trkpt lat="59.952464" lon="17.72472">
        <ele>53.9712</ele>
        <time>2012-06-03T17:05:39Z</time>
      </trkpt>
      <trkpt lat="59.9523785" lon="17.7248495">
        <ele>53.9712</ele>
        <time>2012-06-03T17:05:43Z</time>
      </trkpt>
      <trkpt lat="59.9523414" lon="17.7249099">
        <ele>54.9324</ele>
        <time>2012-06-03T17:05:45Z</time>
      </trkpt>
      <trkpt lat="59.9522523" lon="17.7251059">
        <ele>54.4518</ele>
        <time>2012-06-03T17:05:50Z</time>
      </trkpt>
      <trkpt lat="59.95217" lon="17.7252875">
        <ele>55.4131</ele>
        <time>2012-06-03T17:05:55Z</time>
      </trkpt>
      <trkpt lat="59.9520998" lon="17.7254323">
        <ele>55.4131</ele>
        <time>2012-06-03T17:05:59Z</time>
      </trkpt>
      <trkpt lat="59.9520186" lon="17.7256233">
        <ele>54.9324</ele>
        <time>2012-06-03T17:06:04Z</time>
      </trkpt>
      <trkpt lat="59.9519712" lon="17.7257248">
        <ele>54.4518</ele>
        <time>2012-06-03T17:06:07Z</time>
      </trkpt>
      <trkpt lat="59.9519125" lon="17.7258384">
        <ele>55.4131</ele>
        <time>2012-06-03T17:06:10Z</time>
      </trkpt>
      <trkpt lat="59.951796" lon="17.7259512">
        <ele>58.2971</ele>
        <time>2012-06-03T17:06:16Z</time>
      </trkpt>
      <trkpt lat="59.9517804" lon="17.725967">
        <ele>58.7777</ele>
        <time>2012-06-03T17:06:17Z</time>
      </trkpt>
      <trkpt lat="59.9516711" lon="17.7261583">
        <ele>60.2197</ele>
        <time>2012-06-03T17:06:23Z</time>
      </trkpt>
      <trkpt lat="59.9516116" lon="17.7263196">
        <ele>60.2197</ele>
        <time>2012-06-03T17:06:27Z</time>
      </trkpt>
      <trkpt lat="59.9515639" lon="17.7264713">
        <ele>60.7003</ele>
        <time>2012-06-03T17:06:31Z</time>
      </trkpt>
      <trkpt lat="59.9514827" lon="17.7267256">
        <ele>60.7003</ele>
        <time>2012-06-03T17:06:37Z</time>
      </trkpt>
      <trkpt lat="59.9515024" lon="17.7269449">
        <ele>58.2971</ele>
        <time>2012-06-03T17:06:42Z</time>
      </trkpt>
      <trkpt lat="59.9515416" lon="17.7273037">
        <ele>56.8551</ele>
        <time>2012-06-03T17:06:49Z</time>
      </trkpt>
      <trkpt lat="59.951563" lon="17.7276468">
        <ele>53.9712</ele>
        <time>2012-06-03T17:06:56Z</time>
      </trkpt>
      <trkpt lat="59.9516188" lon="17.7278413">
        <ele>51.5679</ele>
        <time>2012-06-03T17:07:01Z</time>
      </trkpt>
      <trkpt lat="59.9516849" lon="17.7279331">
        <ele>48.684</ele>
        <time>2012-06-03T17:07:05Z</time>
      </trkpt>
      <trkpt lat="59.9518075" lon="17.7279608">
        <ele>46.2806</ele>
        <time>2012-06-03T17:07:10Z</time>
      </trkpt>
      <trkpt lat="59.9519054" lon="17.7279062">
        <ele>45.7999</ele>
        <time>2012-06-03T17:07:14Z</time>
      </trkpt>
      <trkpt lat="59.9520182" lon="17.727755">
        <ele>45.7999</ele>
        <time>2012-06-03T17:07:19Z</time>
      </trkpt>
      <trkpt lat="59.9520368" lon="17.7277129">
        <ele>45.3192</ele>
        <time>2012-06-03T17:07:20Z</time>
      </trkpt>
      <trkpt lat="59.9520689" lon="17.7275193">
        <ele>46.2806</ele>
        <time>2012-06-03T17:07:24Z</time>
      </trkpt>
      <trkpt lat="59.9520813" lon="17.7274753">
        <ele>46.2806</ele>
        <time>2012-06-03T17:07:25Z</time>
      </trkpt>
      <trkpt lat="59.9521276" lon="17.7273997">
        <ele>45.7999</ele>
        <time>2012-06-03T17:07:27Z</time>
      </trkpt>
      <trkpt lat="59.9521763" lon="17.7271325">
        <ele>45.7999</ele>
        <time>2012-06-03T17:07:33Z</time>
      </trkpt>
      <trkpt lat="59.952206" lon="17.7269516">
        <ele>46.2806</ele>
        <time>2012-06-03T17:07:37Z</time>
      </trkpt>
      <trkpt lat="59.9522766" lon="17.7267024">
        <ele>45.7999</ele>
        <time>2012-06-03T17:07:43Z</time>
      </trkpt>
      <trkpt lat="59.9523434" lon="17.726509">
        <ele>46.2806</ele>
        <time>2012-06-03T17:07:48Z</time>
      </trkpt>
      <trkpt lat="59.9523998" lon="17.7263719">
        <ele>45.7999</ele>
        <time>2012-06-03T17:07:52Z</time>
      </trkpt>
      <trkpt lat="59.9524733" lon="17.7261994">
        <ele>45.3192</ele>
        <time>2012-06-03T17:07:57Z</time>
      </trkpt>
      <trkpt lat="59.9525449" lon="17.7259905">
        <ele>45.3192</ele>
        <time>2012-06-03T17:08:02Z</time>
      </trkpt>
      <trkpt lat="59.9525607" lon="17.7259586">
        <ele>45.3192</ele>
        <time>2012-06-03T17:08:03Z</time>
      </trkpt>
      <trkpt lat="59.9526538" lon="17.7258012">
        <ele>47.2418</ele>
        <time>2012-06-03T17:08:08Z</time>
      </trkpt>
      <trkpt lat="59.9527216" lon="17.7255954">
        <ele>50.126</ele>
        <time>2012-06-03T17:08:13Z</time>
      </trkpt>
      <trkpt lat="59.9527895" lon="17.725454">
        <ele>50.126</ele>
        <time>2012-06-03T17:08:17Z</time>
      </trkpt>
      <trkpt lat="59.952867" lon="17.725295">
        <ele>50.6066</ele>
        <time>2012-06-03T17:08:21Z</time>
      </trkpt>
      <trkpt lat="59.9529341" lon="17.7251321">
        <ele>50.6066</ele>
        <time>2012-06-03T17:08:25Z</time>
      </trkpt>
      <trkpt lat="59.953023" lon="17.7249524">
        <ele>50.126</ele>
        <time>2012-06-03T17:08:30Z</time>
      </trkpt>
      <trkpt lat="59.9530863" lon="17.7248221">
        <ele>48.684</ele>
        <time>2012-06-03T17:08:34Z</time>
      </trkpt>
      <trkpt lat="59.9532153" lon="17.7247288">
        <ele>45.7999</ele>
        <time>2012-06-03T17:08:39Z</time>
      </trkpt>
      <trkpt lat="59.9533104" lon="17.7245685">
        <ele>48.2034</ele>
        <time>2012-06-03T17:08:44Z</time>
      </trkpt>
      <trkpt lat="59.9533775" lon="17.7244598">
        <ele>49.6453</ele>
        <time>2012-06-03T17:08:48Z</time>
      </trkpt>
      <trkpt lat="59.9534658" lon="17.724358">
        <ele>50.126</ele>
        <time>2012-06-03T17:08:52Z</time>
      </trkpt>
      <trkpt lat="59.9535697" lon="17.7241531">
        <ele>49.6453</ele>
        <time>2012-06-03T17:08:58Z</time>
      </trkpt>
      <trkpt lat="59.9536458" lon="17.723945">
        <ele>50.126</ele>
        <time>2012-06-03T17:09:04Z</time>
      </trkpt>
      <trkpt lat="59.9537766" lon="17.7237784">
        <ele>51.5679</ele>
        <time>2012-06-03T17:09:10Z</time>
      </trkpt>
      <trkpt lat="59.9538645" lon="17.7236073">
        <ele>52.0486</ele>
        <time>2012-06-03T17:09:15Z</time>
      </trkpt>
      <trkpt lat="59.9539534" lon="17.7234058">
        <ele>55.4131</ele>
        <time>2012-06-03T17:09:21Z</time>
      </trkpt>
      <trkpt lat="59.954" lon="17.7232036">
        <ele>60.2197</ele>
        <time>2012-06-03T17:09:26Z</time>
      </trkpt>
      <trkpt lat="59.9541" lon="17.7231133">
        <ele>61.6617</ele>
        <time>2012-06-03T17:09:31Z</time>
      </trkpt>
      <trkpt lat="59.9542348" lon="17.7231168">
        <ele>62.6229</ele>
        <time>2012-06-03T17:09:36Z</time>
      </trkpt>
      <trkpt lat="59.9543804" lon="17.7232075">
        <ele>61.181</ele>
        <time>2012-06-03T17:09:41Z</time>
      </trkpt>
      <trkpt lat="59.9545125" lon="17.7232507">
        <ele>62.1423</ele>
        <time>2012-06-03T17:09:45Z</time>
      </trkpt>
      <trkpt lat="59.9546081" lon="17.7233293">
        <ele>60.2197</ele>
        <time>2012-06-03T17:09:50Z</time>
      </trkpt>
      <trkpt lat="59.9546896" lon="17.7233969">
        <ele>57.8165</ele>
        <time>2012-06-03T17:09:55Z</time>
      </trkpt>
      <trkpt lat="59.9548253" lon="17.7235466">
        <ele>55.4131</ele>
        <time>2012-06-03T17:10:01Z</time>
      </trkpt>
      <trkpt lat="59.9549088" lon="17.7235814">
        <ele>53.9712</ele>
        <time>2012-06-03T17:10:04Z</time>
      </trkpt>
      <trkpt lat="59.955048" lon="17.7235752">
        <ele>51.0872</ele>
        <time>2012-06-03T17:10:11Z</time>
      </trkpt>
      <trkpt lat="59.9551112" lon="17.7234603">
        <ele>54.4518</ele>
        <time>2012-06-03T17:10:15Z</time>
      </trkpt>
      <trkpt lat="59.9552642" lon="17.7233214">
        <ele>57.8165</ele>
        <time>2012-06-03T17:10:22Z</time>
      </trkpt>
      <trkpt lat="59.9554012" lon="17.7232816">
        <ele>61.6617</ele>
        <time>2012-06-03T17:10:26Z</time>
      </trkpt>
      <trkpt lat="59.9555084" lon="17.7233091">
        <ele>64.5457</ele>
        <time>2012-06-03T17:10:31Z</time>
      </trkpt>
      <trkpt lat="59.955654" lon="17.7234002">
        <ele>64.0651</ele>
        <time>2012-06-03T17:10:37Z</time>
      </trkpt>
      <trkpt lat="59.9557059" lon="17.7234528">
        <ele>63.5844</ele>
        <time>2012-06-03T17:10:39Z</time>
      </trkpt>
      <trkpt lat="59.9558103" lon="17.7236224">
        <ele>60.2197</ele>
        <time>2012-06-03T17:10:44Z</time>
      </trkpt>
      <trkpt lat="59.9559524" lon="17.7235778">
        <ele>57.8165</ele>
        <time>2012-06-03T17:10:51Z</time>
      </trkpt>
      <trkpt lat="59.9560058" lon="17.7234805">
        <ele>57.3358</ele>
        <time>2012-06-03T17:10:54Z</time>
      </trkpt>
      <trkpt lat="59.95605" lon="17.7233025">
        <ele>56.3745</ele>
        <time>2012-06-03T17:10:58Z</time>
      </trkpt>
      <trkpt lat="59.9560839" lon="17.7230886">
        <ele>54.9324</ele>
        <time>2012-06-03T17:11:03Z</time>
      </trkpt>
      <trkpt lat="59.956079" lon="17.7229127">
        <ele>54.4518</ele>
        <time>2012-06-03T17:11:07Z</time>
      </trkpt>
      <trkpt lat="59.956029" lon="17.7226372">
        <ele>53.9712</ele>
        <time>2012-06-03T17:11:13Z</time>
      </trkpt>
      <trkpt lat="59.9559903" lon="17.7223935">
        <ele>53.4905</ele>
        <time>2012-06-03T17:11:18Z</time>
      </trkpt>
      <trkpt lat="59.9559577" lon="17.7223">
        <ele>53.4905</ele>
        <time>2012-06-03T17:11:20Z</time>
      </trkpt>
      <trkpt lat="59.9559388" lon="17.7221239">
        <ele>53.0098</ele>
        <time>2012-06-03T17:11:24Z</time>
      </trkpt>
      <trkpt lat="59.9559762" lon="17.7219009">
        <ele>52.5292</ele>
        <time>2012-06-03T17:11:29Z</time>
      </trkpt>
      <trkpt lat="59.955998" lon="17.7216563">
        <ele>52.0486</ele>
        <time>2012-06-03T17:11:34Z</time>
      </trkpt>
      <trkpt lat="59.9560046" lon="17.7216177">
        <ele>51.5679</ele>
        <time>2012-06-03T17:11:35Z</time>
      </trkpt>
      <trkpt lat="59.9559592" lon="17.7213473">
        <ele>50.126</ele>
        <time>2012-06-03T17:11:41Z</time>
      </trkpt>
      <trkpt lat="59.9558908" lon="17.7212479">
        <ele>49.6453</ele>
        <time>2012-06-03T17:11:45Z</time>
      </trkpt>
      <trkpt lat="59.955765" lon="17.7212681">
        <ele>52.5292</ele>
        <time>2012-06-03T17:11:50Z</time>
      </trkpt>
      <trkpt lat="59.9556722" lon="17.7213211">
        <ele>53.9712</ele>
        <time>2012-06-03T17:11:54Z</time>
      </trkpt>
      <trkpt lat="59.9555856" lon="17.7213856">
        <ele>55.4131</ele>
        <time>2012-06-03T17:11:58Z</time>
      </trkpt>
      <trkpt lat="59.9555047" lon="17.7214275">
        <ele>55.8938</ele>
        <time>2012-06-03T17:12:02Z</time>
      </trkpt>
      <trkpt lat="59.9553904" lon="17.7213861">
        <ele>55.8938</ele>
        <time>2012-06-03T17:12:07Z</time>
      </trkpt>
      <trkpt lat="59.9552837" lon="17.7213881">
        <ele>58.7777</ele>
        <time>2012-06-03T17:12:12Z</time>
      </trkpt>
      <trkpt lat="59.9551564" lon="17.7214424">
        <ele>58.7777</ele>
        <time>2012-06-03T17:12:19Z</time>
      </trkpt>
      <trkpt lat="59.9551344" lon="17.7214492">
        <ele>58.2971</ele>
        <time>2012-06-03T17:12:20Z</time>
      </trkpt>
      <trkpt lat="59.955003" lon="17.7213769">
        <ele>55.8938</ele>
        <time>2012-06-03T17:12:25Z</time>
      </trkpt>
      <trkpt lat="59.9549618" lon="17.7213543">
        <ele>55.8938</ele>
        <time>2012-06-03T17:12:27Z</time>
      </trkpt>
      <trkpt lat="59.9548765" lon="17.7211162">
        <ele>52.0486</ele>
        <time>2012-06-03T17:12:33Z</time>
      </trkpt>
      <trkpt lat="59.9548466" lon="17.720887">
        <ele>51.0872</ele>
        <time>2012-06-03T17:12:37Z</time>
      </trkpt>
      <trkpt lat="59.9548759" lon="17.7206169">
        <ele>53.4905</ele>
        <time>2012-06-03T17:12:43Z</time>
      </trkpt>
      <trkpt lat="59.954904" lon="17.7205486">
        <ele>54.4518</ele>
        <time>2012-06-03T17:12:45Z</time>
      </trkpt>
      <trkpt lat="59.9550179" lon="17.7204407">
        <ele>55.4131</ele>
        <time>2012-06-03T17:12:51Z</time>
      </trkpt>
      <trkpt lat="59.9550801" lon="17.720403">
        <ele>56.8551</ele>
        <time>2012-06-03T17:12:54Z</time>
      </trkpt>
      <trkpt lat="59.9552128" lon="17.7202919">
        <ele>59.2584</ele>
        <time>2012-06-03T17:12:59Z</time>
      </trkpt>
      <trkpt lat="59.9553129" lon="17.720142">
        <ele>62.1423</ele>
        <time>2012-06-03T17:13:04Z</time>
      </trkpt>
      <trkpt lat="59.955408" lon="17.7200135">
        <ele>63.1036</ele>
        <time>2012-06-03T17:13:09Z</time>
      </trkpt>
      <trkpt lat="59.9555004" lon="17.7198894">
        <ele>63.1036</ele>
        <time>2012-06-03T17:13:14Z</time>
      </trkpt>
      <trkpt lat="59.9556133" lon="17.7198182">
        <ele>62.6229</ele>
        <time>2012-06-03T17:13:19Z</time>
      </trkpt>
      <trkpt lat="59.9557262" lon="17.7197305">
        <ele>59.7391</ele>
        <time>2012-06-03T17:13:24Z</time>
      </trkpt>
      <trkpt lat="59.9558435" lon="17.7196058">
        <ele>58.7777</ele>
        <time>2012-06-03T17:13:29Z</time>
      </trkpt>
      <trkpt lat="59.9559493" lon="17.7195083">
        <ele>57.3358</ele>
        <time>2012-06-03T17:13:34Z</time>
      </trkpt>
      <trkpt lat="59.9560747" lon="17.7194259">
        <ele>55.8938</ele>
        <time>2012-06-03T17:13:39Z</time>
      </trkpt>
      <trkpt lat="59.9561844" lon="17.7192088">
        <ele>55.4131</ele>
        <time>2012-06-03T17:13:45Z</time>
      </trkpt>
      <trkpt lat="59.9562399" lon="17.7190462">
        <ele>56.3745</ele>
        <time>2012-06-03T17:13:49Z</time>
      </trkpt>
      <trkpt lat="59.9562743" lon="17.7188674">
        <ele>54.4518</ele>
        <time>2012-06-03T17:13:53Z</time>
      </trkpt>
      <trkpt lat="59.9562809" lon="17.7186184">
        <ele>53.0098</ele>
        <time>2012-06-03T17:13:58Z</time>
      </trkpt>
      <trkpt lat="59.9562162" lon="17.7184452">
        <ele>52.0486</ele>
        <time>2012-06-03T17:14:02Z</time>
      </trkpt>
      <trkpt lat="59.9561054" lon="17.7181817">
        <ele>50.126</ele>
        <time>2012-06-03T17:14:08Z</time>
      </trkpt>
      <trkpt lat="59.9560178" lon="17.717976">
        <ele>50.126</ele>
        <time>2012-06-03T17:14:13Z</time>
      </trkpt>
      <trkpt lat="59.9559412" lon="17.7177979">
        <ele>50.6066</ele>
        <time>2012-06-03T17:14:18Z</time>
      </trkpt>
      <trkpt lat="59.9558537" lon="17.7176394">
        <ele>52.0486</ele>
        <time>2012-06-03T17:14:23Z</time>
      </trkpt>
      <trkpt lat="59.9557919" lon="17.7174837">
        <ele>52.5292</ele>
        <time>2012-06-03T17:14:27Z</time>
      </trkpt>
      <trkpt lat="59.9557058" lon="17.7172575">
        <ele>51.0872</ele>
        <time>2012-06-03T17:14:32Z</time>
      </trkpt>
      <trkpt lat="59.955639" lon="17.7169991">
        <ele>49.1646</ele>
        <time>2012-06-03T17:14:37Z</time>
      </trkpt>
      <trkpt lat="59.9555919" lon="17.7167271">
        <ele>46.7612</ele>
        <time>2012-06-03T17:14:42Z</time>
      </trkpt>
      <trkpt lat="59.955592" lon="17.7165321">
        <ele>44.8386</ele>
        <time>2012-06-03T17:14:46Z</time>
      </trkpt>
      <trkpt lat="59.9555738" lon="17.7163811">
        <ele>42.4354</ele>
        <time>2012-06-03T17:14:49Z</time>
      </trkpt>
      <trkpt lat="59.9555443" lon="17.7160667">
        <ele>38.5901</ele>
        <time>2012-06-03T17:14:54Z</time>
      </trkpt>
      <trkpt lat="59.9555261" lon="17.7158512">
        <ele>37.1481</ele>
        <time>2012-06-03T17:14:58Z</time>
      </trkpt>
      <trkpt lat="59.955508" lon="17.7157003">
        <ele>36.6675</ele>
        <time>2012-06-03T17:15:01Z</time>
      </trkpt>
      <trkpt lat="59.9554931" lon="17.7154699">
        <ele>36.6675</ele>
        <time>2012-06-03T17:15:05Z</time>
      </trkpt>
      <trkpt lat="59.9554742" lon="17.7151492">
        <ele>35.7061</ele>
        <time>2012-06-03T17:15:11Z</time>
      </trkpt>
      <trkpt lat="59.9554625" lon="17.7150693">
        <ele>35.7061</ele>
        <time>2012-06-03T17:15:13Z</time>
      </trkpt>
      <trkpt lat="59.9554402" lon="17.7149254">
        <ele>35.7061</ele>
        <time>2012-06-03T17:15:16Z</time>
      </trkpt>
      <trkpt lat="59.9553692" lon="17.7146585">
        <ele>36.1868</ele>
        <time>2012-06-03T17:15:21Z</time>
      </trkpt>
      <trkpt lat="59.9552852" lon="17.7143272">
        <ele>36.6675</ele>
        <time>2012-06-03T17:15:27Z</time>
      </trkpt>
      <trkpt lat="59.955234" lon="17.7141537">
        <ele>36.6675</ele>
        <time>2012-06-03T17:15:31Z</time>
      </trkpt>
      <trkpt lat="59.955222" lon="17.714122">
        <ele>36.1868</ele>
        <time>2012-06-03T17:15:32Z</time>
      </trkpt>
      <trkpt lat="59.9551693" lon="17.71414">
        <ele>35.7061</ele>
        <time>2012-06-03T17:15:35Z</time>
      </trkpt>
      <trkpt lat="59.9551517" lon="17.7141856">
        <ele>35.7061</ele>
        <time>2012-06-03T17:15:36Z</time>
      </trkpt>
      <trkpt lat="59.9550973" lon="17.7142853">
        <ele>35.7061</ele>
        <time>2012-06-03T17:15:40Z</time>
      </trkpt>
      <trkpt lat="59.955089" lon="17.7143092">
        <ele>35.2255</ele>
        <time>2012-06-03T17:15:42Z</time>
      </trkpt>
      <trkpt lat="59.9550856" lon="17.7143343">
        <ele>34.7449</ele>
        <time>2012-06-03T17:15:44Z</time>
      </trkpt>
      <trkpt lat="59.9550194" lon="17.7144176">
        <ele>36.6675</ele>
        <time>2012-06-03T17:15:49Z</time>
      </trkpt>
      <trkpt lat="59.9550079" lon="17.7144381">
        <ele>37.1481</ele>
        <time>2012-06-03T17:15:50Z</time>
      </trkpt>
      <trkpt lat="59.9549895" lon="17.7144779">
        <ele>37.6287</ele>
        <time>2012-06-03T17:15:52Z</time>
      </trkpt>
      <trkpt lat="59.9549341" lon="17.7146016">
        <ele>41.474</ele>
        <time>2012-06-03T17:15:58Z</time>
      </trkpt>
      <trkpt lat="59.9549237" lon="17.7146224">
        <ele>41.474</ele>
        <time>2012-06-03T17:15:59Z</time>
      </trkpt>
      <trkpt lat="59.9548306" lon="17.7147945">
        <ele>43.8773</ele>
        <time>2012-06-03T17:16:09Z</time>
      </trkpt>
      <trkpt lat="59.9547139" lon="17.7148342">
        <ele>45.3192</ele>
        <time>2012-06-03T17:16:19Z</time>
      </trkpt>
      <trkpt lat="59.9546171" lon="17.7148291">
        <ele>42.916</ele>
        <time>2012-06-03T17:16:27Z</time>
      </trkpt>
      <trkpt lat="59.9545298" lon="17.7148416">
        <ele>41.9547</ele>
        <time>2012-06-03T17:16:34Z</time>
      </trkpt>
      <trkpt lat="59.9544509" lon="17.7148776">
        <ele>44.8386</ele>
        <time>2012-06-03T17:16:40Z</time>
      </trkpt>
      <trkpt lat="59.9543561" lon="17.7148797">
        <ele>47.7225</ele>
        <time>2012-06-03T17:16:47Z</time>
      </trkpt>
      <trkpt lat="59.9542701" lon="17.7148819">
        <ele>49.1646</ele>
        <time>2012-06-03T17:16:53Z</time>
      </trkpt>
      <trkpt lat="59.9542555" lon="17.7148829">
        <ele>49.6453</ele>
        <time>2012-06-03T17:16:54Z</time>
      </trkpt>
      <trkpt lat="59.9541156" lon="17.7149551">
        <ele>52.0486</ele>
        <time>2012-06-03T17:17:01Z</time>
      </trkpt>
      <trkpt lat="59.9539866" lon="17.7149792">
        <ele>53.4905</ele>
        <time>2012-06-03T17:17:06Z</time>
      </trkpt>
      <trkpt lat="59.9538363" lon="17.7150273">
        <ele>53.9712</ele>
        <time>2012-06-03T17:17:12Z</time>
      </trkpt>
      <trkpt lat="59.9536884" lon="17.7150798">
        <ele>53.0098</ele>
        <time>2012-06-03T17:17:17Z</time>
      </trkpt>
      <trkpt lat="59.9536016" lon="17.7151511">
        <ele>52.5292</ele>
        <time>2012-06-03T17:17:21Z</time>
      </trkpt>
      <trkpt lat="59.9535235" lon="17.715283">
        <ele>54.4518</ele>
        <time>2012-06-03T17:17:26Z</time>
      </trkpt>
      <trkpt lat="59.9534167" lon="17.7154093">
        <ele>53.9712</ele>
        <time>2012-06-03T17:17:31Z</time>
      </trkpt>
      <trkpt lat="59.9533313" lon="17.7155192">
        <ele>51.5679</ele>
        <time>2012-06-03T17:17:36Z</time>
      </trkpt>
      <trkpt lat="59.953267" lon="17.7156213">
        <ele>52.0486</ele>
        <time>2012-06-03T17:17:40Z</time>
      </trkpt>
      <trkpt lat="59.9531609" lon="17.7157206">
        <ele>46.2806</ele>
        <time>2012-06-03T17:17:46Z</time>
      </trkpt>
      <trkpt lat="59.9531438" lon="17.715743">
        <ele>45.3192</ele>
        <time>2012-06-03T17:17:47Z</time>
      </trkpt>
      <trkpt lat="59.9530585" lon="17.7160443">
        <ele>49.6453</ele>
        <time>2012-06-03T17:17:53Z</time>
      </trkpt>
      <trkpt lat="59.9530091" lon="17.7162988">
        <ele>49.6453</ele>
        <time>2012-06-03T17:17:59Z</time>
      </trkpt>
      <trkpt lat="59.9529851" lon="17.7165343">
        <ele>50.126</ele>
        <time>2012-06-03T17:18:04Z</time>
      </trkpt>
      <trkpt lat="59.9529575" lon="17.7167442">
        <ele>49.6453</ele>
        <time>2012-06-03T17:18:09Z</time>
      </trkpt>
      <trkpt lat="59.9529636" lon="17.7169811">
        <ele>50.126</ele>
        <time>2012-06-03T17:18:14Z</time>
      </trkpt>
      <trkpt lat="59.9529386" lon="17.7171721">
        <ele>50.126</ele>
        <time>2012-06-03T17:18:18Z</time>
      </trkpt>
      <trkpt lat="59.9528874" lon="17.7173879">
        <ele>49.1646</ele>
        <time>2012-06-03T17:18:23Z</time>
      </trkpt>
      <trkpt lat="59.952833" lon="17.7175487">
        <ele>49.6453</ele>
        <time>2012-06-03T17:18:27Z</time>
      </trkpt>
      <trkpt lat="59.9527325" lon="17.7178295">
        <ele>51.5679</ele>
        <time>2012-06-03T17:18:34Z</time>
      </trkpt>
      <trkpt lat="59.9526724" lon="17.7180333">
        <ele>51.5679</ele>
        <time>2012-06-03T17:18:40Z</time>
      </trkpt>
      <trkpt lat="59.9526617" lon="17.718067">
        <ele>52.0486</ele>
        <time>2012-06-03T17:18:41Z</time>
      </trkpt>
      <trkpt lat="59.9526212" lon="17.7182785">
        <ele>54.9324</ele>
        <time>2012-06-03T17:18:46Z</time>
      </trkpt>
      <trkpt lat="59.9525927" lon="17.7184097">
        <ele>55.8938</ele>
        <time>2012-06-03T17:18:50Z</time>
      </trkpt>
      <trkpt lat="59.952558" lon="17.7186074">
        <ele>55.4131</ele>
        <time>2012-06-03T17:18:55Z</time>
      </trkpt>
      <trkpt lat="59.952513" lon="17.7188276">
        <ele>56.3745</ele>
        <time>2012-06-03T17:19:00Z</time>
      </trkpt>
      <trkpt lat="59.952457" lon="17.7190038">
        <ele>54.9324</ele>
        <time>2012-06-03T17:19:05Z</time>
      </trkpt>
      <trkpt lat="59.9524319" lon="17.7192641">
        <ele>54.4518</ele>
        <time>2012-06-03T17:19:11Z</time>
      </trkpt>
      <trkpt lat="59.9524374" lon="17.7194461">
        <ele>53.4905</ele>
        <time>2012-06-03T17:19:16Z</time>
      </trkpt>
      <trkpt lat="59.9524739" lon="17.7196731">
        <ele>54.4518</ele>
        <time>2012-06-03T17:19:22Z</time>
      </trkpt>
      <trkpt lat="59.9525482" lon="17.7199044">
        <ele>57.8165</ele>
        <time>2012-06-03T17:19:27Z</time>
      </trkpt>
      <trkpt lat="59.9526018" lon="17.7201196">
        <ele>59.7391</ele>
        <time>2012-06-03T17:19:32Z</time>
      </trkpt>
      <trkpt lat="59.952601" lon="17.7202926">
        <ele>56.8551</ele>
        <time>2012-06-03T17:19:36Z</time>
      </trkpt>
      <trkpt lat="59.9525835" lon="17.7204742">
        <ele>55.8938</ele>
        <time>2012-06-03T17:19:40Z</time>
      </trkpt>
      <trkpt lat="59.9525837" lon="17.7207807">
        <ele>54.4518</ele>
        <time>2012-06-03T17:19:47Z</time>
      </trkpt>
      <trkpt lat="59.9525849" lon="17.721021">
        <ele>53.4905</ele>
        <time>2012-06-03T17:19:52Z</time>
      </trkpt>
      <trkpt lat="59.9525891" lon="17.7212162">
        <ele>52.0486</ele>
        <time>2012-06-03T17:19:57Z</time>
      </trkpt>
      <trkpt lat="59.9525735" lon="17.7214072">
        <ele>52.0486</ele>
        <time>2012-06-03T17:20:01Z</time>
      </trkpt>
      <trkpt lat="59.9525704" lon="17.7214999">
        <ele>51.5679</ele>
        <time>2012-06-03T17:20:03Z</time>
      </trkpt>
      <trkpt lat="59.9526031" lon="17.721775">
        <ele>54.9324</ele>
        <time>2012-06-03T17:20:09Z</time>
      </trkpt>
      <trkpt lat="59.9526383" lon="17.7219522">
        <ele>55.8938</ele>
        <time>2012-06-03T17:20:13Z</time>
      </trkpt>
      <trkpt lat="59.9526497" lon="17.7220848">
        <ele>57.3358</ele>
        <time>2012-06-03T17:20:16Z</time>
      </trkpt>
      <trkpt lat="59.9526144" lon="17.7223816">
        <ele>57.3358</ele>
        <time>2012-06-03T17:20:22Z</time>
      </trkpt>
      <trkpt lat="59.9525418" lon="17.7226239">
        <ele>57.8165</ele>
        <time>2012-06-03T17:20:27Z</time>
      </trkpt>
      <trkpt lat="59.9525336" lon="17.72284">
        <ele>56.3745</ele>
        <time>2012-06-03T17:20:31Z</time>
      </trkpt>
      <trkpt lat="59.9525595" lon="17.7231129">
        <ele>54.9324</ele>
        <time>2012-06-03T17:20:37Z</time>
      </trkpt>
      <trkpt lat="59.9525874" lon="17.7232907">
        <ele>54.4518</ele>
        <time>2012-06-03T17:20:41Z</time>
      </trkpt>
      <trkpt lat="59.9525953" lon="17.7233327">
        <ele>53.9712</ele>
        <time>2012-06-03T17:20:42Z</time>
      </trkpt>
      <trkpt lat="59.9526382" lon="17.7235312">
        <ele>53.9712</ele>
        <time>2012-06-03T17:20:47Z</time>
      </trkpt>
      <trkpt lat="59.952701" lon="17.7236986">
        <ele>52.0486</ele>
        <time>2012-06-03T17:20:52Z</time>
      </trkpt>
      <trkpt lat="59.9527163" lon="17.7237397">
        <ele>52.0486</ele>
        <time>2012-06-03T17:20:53Z</time>
      </trkpt>
      <trkpt lat="59.9527388" lon="17.7238201">
        <ele>51.5679</ele>
        <time>2012-06-03T17:20:55Z</time>
      </trkpt>
      <trkpt lat="59.9527575" lon="17.7239618">
        <ele>52.0486</ele>
        <time>2012-06-03T17:20:58Z</time>
      </trkpt>
      <trkpt lat="59.9526853" lon="17.7242632">
        <ele>51.0872</ele>
        <time>2012-06-03T17:21:04Z</time>
      </trkpt>
      <trkpt lat="59.9526331" lon="17.7244144">
        <ele>49.1646</ele>
        <time>2012-06-03T17:21:08Z</time>
      </trkpt>
      <trkpt lat="59.9525306" lon="17.7246247">
        <ele>47.2418</ele>
        <time>2012-06-03T17:21:14Z</time>
      </trkpt>
      <trkpt lat="59.9524521" lon="17.7247783">
        <ele>46.7612</ele>
        <time>2012-06-03T17:21:18Z</time>
      </trkpt>
      <trkpt lat="59.9523565" lon="17.7249291">
        <ele>44.8386</ele>
        <time>2012-06-03T17:21:23Z</time>
      </trkpt>
      <trkpt lat="59.9522845" lon="17.7250578">
        <ele>43.8773</ele>
        <time>2012-06-03T17:21:27Z</time>
      </trkpt>
      <trkpt lat="59.9522611" lon="17.7250817">
        <ele>43.3966</ele>
        <time>2012-06-03T17:21:28Z</time>
      </trkpt>
      <trkpt lat="59.9521601" lon="17.725298">
        <ele>43.8773</ele>
        <time>2012-06-03T17:21:34Z</time>
      </trkpt>
      <trkpt lat="59.9521043" lon="17.7254072">
        <ele>44.358</ele>
        <time>2012-06-03T17:21:37Z</time>
      </trkpt>
      <trkpt lat="59.9520256" lon="17.7255706">
        <ele>44.8386</ele>
        <time>2012-06-03T17:21:41Z</time>
      </trkpt>
      <trkpt lat="59.9519416" lon="17.7257674">
        <ele>44.358</ele>
        <time>2012-06-03T17:21:45Z</time>
      </trkpt>
      <trkpt lat="59.951925" lon="17.7258042">
        <ele>44.358</ele>
        <time>2012-06-03T17:21:46Z</time>
      </trkpt>
      <trkpt lat="59.9518908" lon="17.7258306">
        <ele>45.3192</ele>
        <time>2012-06-03T17:21:48Z</time>
      </trkpt>
      <trkpt lat="59.9517814" lon="17.7259561">
        <ele>44.358</ele>
        <time>2012-06-03T17:21:54Z</time>
      </trkpt>
      <trkpt lat="59.9517069" lon="17.7260661">
        <ele>44.8386</ele>
        <time>2012-06-03T17:21:58Z</time>
      </trkpt>
      <trkpt lat="59.9516457" lon="17.726172">
        <ele>44.8386</ele>
        <time>2012-06-03T17:22:02Z</time>
      </trkpt>
      <trkpt lat="59.9515945" lon="17.726317">
        <ele>45.7999</ele>
        <time>2012-06-03T17:22:06Z</time>
      </trkpt>
      <trkpt lat="59.9514917" lon="17.7266252">
        <ele>47.7225</ele>
        <time>2012-06-03T17:22:14Z</time>
      </trkpt>
      <trkpt lat="59.9514696" lon="17.7266956">
        <ele>48.684</ele>
        <time>2012-06-03T17:22:16Z</time>
      </trkpt>
      <trkpt lat="59.9514739" lon="17.7269003">
        <ele>49.1646</ele>
        <time>2012-06-03T17:22:21Z</time>
      </trkpt>
      <trkpt lat="59.9515049" lon="17.7271246">
        <ele>50.6066</ele>
        <time>2012-06-03T17:22:26Z</time>
      </trkpt>
      <trkpt lat="59.9515252" lon="17.7273335">
        <ele>51.5679</ele>
        <time>2012-06-03T17:22:30Z</time>
      </trkpt>
      <trkpt lat="59.9515385" lon="17.7275291">
        <ele>52.0486</ele>
        <time>2012-06-03T17:22:34Z</time>
      </trkpt>
      <trkpt lat="59.9515516" lon="17.7275821">
        <ele>52.0486</ele>
        <time>2012-06-03T17:22:35Z</time>
      </trkpt>
      <trkpt lat="59.9515738" lon="17.7277452">
        <ele>52.0486</ele>
        <time>2012-06-03T17:22:39Z</time>
      </trkpt>
      <trkpt lat="59.9516347" lon="17.7278974">
        <ele>53.0098</ele>
        <time>2012-06-03T17:22:44Z</time>
      </trkpt>
      <trkpt lat="59.9516919" lon="17.7279292">
        <ele>52.5292</ele>
        <time>2012-06-03T17:22:48Z</time>
      </trkpt>
      <trkpt lat="59.9518013" lon="17.7279001">
        <ele>52.0486</ele>
        <time>2012-06-03T17:22:53Z</time>
      </trkpt>
      <trkpt lat="59.9519171" lon="17.7278295">
        <ele>52.0486</ele>
        <time>2012-06-03T17:22:58Z</time>
      </trkpt>
      <trkpt lat="59.9520142" lon="17.727681">
        <ele>50.126</ele>
        <time>2012-06-03T17:23:03Z</time>
      </trkpt>
      <trkpt lat="59.9520715" lon="17.727452">
        <ele>48.684</ele>
        <time>2012-06-03T17:23:07Z</time>
      </trkpt>
      <trkpt lat="59.9521335" lon="17.727237">
        <ele>46.7612</ele>
        <time>2012-06-03T17:23:11Z</time>
      </trkpt>
      <trkpt lat="59.9521737" lon="17.727083">
        <ele>44.358</ele>
        <time>2012-06-03T17:23:15Z</time>
      </trkpt>
      <trkpt lat="59.9522052" lon="17.7268973">
        <ele>43.8773</ele>
        <time>2012-06-03T17:23:20Z</time>
      </trkpt>
      <trkpt lat="59.9522092" lon="17.7268123">
        <ele>44.8386</ele>
        <time>2012-06-03T17:23:22Z</time>
      </trkpt>
      <trkpt lat="59.9522682" lon="17.7266517">
        <ele>44.8386</ele>
        <time>2012-06-03T17:23:26Z</time>
      </trkpt>
      <trkpt lat="59.9523171" lon="17.7264894">
        <ele>45.3192</ele>
        <time>2012-06-03T17:23:31Z</time>
      </trkpt>
      <trkpt lat="59.9523928" lon="17.7262946">
        <ele>44.8386</ele>
        <time>2012-06-03T17:23:37Z</time>
      </trkpt>
      <trkpt lat="59.95247" lon="17.7261293">
        <ele>44.8386</ele>
        <time>2012-06-03T17:23:42Z</time>
      </trkpt>
      <trkpt lat="59.9524984" lon="17.7259692">
        <ele>44.358</ele>
        <time>2012-06-03T17:23:46Z</time>
      </trkpt>
      <trkpt lat="59.9525072" lon="17.7259323">
        <ele>44.358</ele>
        <time>2012-06-03T17:23:47Z</time>
      </trkpt>
      <trkpt lat="59.9526342" lon="17.7257408">
        <ele>48.684</ele>
        <time>2012-06-03T17:23:54Z</time>
      </trkpt>
      <trkpt lat="59.952749" lon="17.7255607">
        <ele>49.6453</ele>
        <time>2012-06-03T17:24:00Z</time>
      </trkpt>
      <trkpt lat="59.9528076" lon="17.7254296">
        <ele>50.126</ele>
        <time>2012-06-03T17:24:04Z</time>
      </trkpt>
      <trkpt lat="59.9529485" lon="17.7252313">
        <ele>50.6066</ele>
        <time>2012-06-03T17:24:11Z</time>
      </trkpt>
      <trkpt lat="59.9530558" lon="17.7251049">
        <ele>50.126</ele>
        <time>2012-06-03T17:24:16Z</time>
      </trkpt>
      <trkpt lat="59.9531354" lon="17.7249801">
        <ele>50.126</ele>
        <time>2012-06-03T17:24:20Z</time>
      </trkpt>
      <trkpt lat="59.9532169" lon="17.7248127">
        <ele>49.6453</ele>
        <time>2012-06-03T17:24:25Z</time>
      </trkpt>
      <trkpt lat="59.9532739" lon="17.7245864">
        <ele>53.9712</ele>
        <time>2012-06-03T17:24:31Z</time>
      </trkpt>
      <trkpt lat="59.9532816" lon="17.7245373">
        <ele>54.4518</ele>
        <time>2012-06-03T17:24:32Z</time>
      </trkpt>
      <trkpt lat="59.9533928" lon="17.7243339">
        <ele>55.8938</ele>
        <time>2012-06-03T17:24:38Z</time>
      </trkpt>
      <trkpt lat="59.9534011" lon="17.7242974">
        <ele>55.4131</ele>
        <time>2012-06-03T17:24:39Z</time>
      </trkpt>
      <trkpt lat="59.9534392" lon="17.7242137">
        <ele>58.2971</ele>
        <time>2012-06-03T17:24:42Z</time>
      </trkpt>
      <trkpt lat="59.9534407" lon="17.7239592">
        <ele>60.7003</ele>
        <time>2012-06-03T17:24:47Z</time>
      </trkpt>
      <trkpt lat="59.9535375" lon="17.7237612">
        <ele>61.6617</ele>
        <time>2012-06-03T17:24:54Z</time>
      </trkpt>
      <trkpt lat="59.9536301" lon="17.7235851">
        <ele>63.5844</ele>
        <time>2012-06-03T17:24:59Z</time>
      </trkpt>
      <trkpt lat="59.9537385" lon="17.7234638">
        <ele>65.0264</ele>
        <time>2012-06-03T17:25:04Z</time>
      </trkpt>
      <trkpt lat="59.953866" lon="17.7233399">
        <ele>65.5071</ele>
        <time>2012-06-03T17:25:10Z</time>
      </trkpt>
      <trkpt lat="59.9539818" lon="17.7232249">
        <ele>65.0264</ele>
        <time>2012-06-03T17:25:15Z</time>
      </trkpt>
      <trkpt lat="59.9540954" lon="17.7231708">
        <ele>65.0264</ele>
        <time>2012-06-03T17:25:20Z</time>
      </trkpt>
      <trkpt lat="59.9542326" lon="17.7231758">
        <ele>66.4683</ele>
        <time>2012-06-03T17:25:25Z</time>
      </trkpt>
      <trkpt lat="59.9543784" lon="17.7232101">
        <ele>68.8716</ele>
        <time>2012-06-03T17:25:30Z</time>
      </trkpt>
      <trkpt lat="59.954513" lon="17.7233432">
        <ele>71.7555</ele>
        <time>2012-06-03T17:25:37Z</time>
      </trkpt>
      <trkpt lat="59.9545325" lon="17.7233828">
        <ele>72.7169</ele>
        <time>2012-06-03T17:25:38Z</time>
      </trkpt>
      <trkpt lat="59.9545808" lon="17.7234302">
        <ele>74.1588</ele>
        <time>2012-06-03T17:25:41Z</time>
      </trkpt>
      <trkpt lat="59.9546652" lon="17.7235261">
        <ele>71.2749</ele>
        <time>2012-06-03T17:25:47Z</time>
      </trkpt>
      <trkpt lat="59.9547391" lon="17.7235829">
        <ele>65.5071</ele>
        <time>2012-06-03T17:25:51Z</time>
      </trkpt>
      <trkpt lat="59.954881" lon="17.72361">
        <ele>58.7777</ele>
        <time>2012-06-03T17:25:57Z</time>
      </trkpt>
      <trkpt lat="59.955018" lon="17.7235375">
        <ele>58.7777</ele>
        <time>2012-06-03T17:26:03Z</time>
      </trkpt>
      <trkpt lat="59.9551195" lon="17.7234353">
        <ele>62.1423</ele>
        <time>2012-06-03T17:26:08Z</time>
      </trkpt>
      <trkpt lat="59.9552478" lon="17.7233528">
        <ele>65.0264</ele>
        <time>2012-06-03T17:26:13Z</time>
      </trkpt>
      <trkpt lat="59.9552892" lon="17.7233249">
        <ele>65.0264</ele>
        <time>2012-06-03T17:26:15Z</time>
      </trkpt>
      <trkpt lat="59.9554268" lon="17.7233214">
        <ele>63.1036</ele>
        <time>2012-06-03T17:26:22Z</time>
      </trkpt>
      <trkpt lat="59.9555837" lon="17.7234083">
        <ele>61.6617</ele>
        <time>2012-06-03T17:26:28Z</time>
      </trkpt>
      <trkpt lat="59.9557651" lon="17.7235504">
        <ele>61.6617</ele>
        <time>2012-06-03T17:26:34Z</time>
      </trkpt>
      <trkpt lat="59.9559321" lon="17.7236369">
        <ele>62.1423</ele>
        <time>2012-06-03T17:26:41Z</time>
      </trkpt>
      <trkpt lat="59.9559458" lon="17.7236336">
        <ele>61.6617</ele>
        <time>2012-06-03T17:26:42Z</time>
      </trkpt>
      <trkpt lat="59.9560282" lon="17.7234673">
        <ele>56.3745</ele>
        <time>2012-06-03T17:26:49Z</time>
      </trkpt>
      <trkpt lat="59.9561012" lon="17.7232592">
        <ele>55.4131</ele>
        <time>2012-06-03T17:26:54Z</time>
      </trkpt>
      <trkpt lat="59.9561104" lon="17.7229178">
        <ele>51.5679</ele>
        <time>2012-06-03T17:27:01Z</time>
      </trkpt>
      <trkpt lat="59.9560623" lon="17.7226623">
        <ele>51.0872</ele>
        <time>2012-06-03T17:27:06Z</time>
      </trkpt>
      <trkpt lat="59.9560146" lon="17.7224189">
        <ele>50.126</ele>
        <time>2012-06-03T17:27:12Z</time>
      </trkpt>
      <trkpt lat="59.9559658" lon="17.7221378">
        <ele>51.0872</ele>
        <time>2012-06-03T17:27:18Z</time>
      </trkpt>
      <trkpt lat="59.9559509" lon="17.7219807">
        <ele>51.0872</ele>
        <time>2012-06-03T17:27:21Z</time>
      </trkpt>
      <trkpt lat="59.9559538" lon="17.7217922">
        <ele>50.6066</ele>
        <time>2012-06-03T17:27:25Z</time>
      </trkpt>
      <trkpt lat="59.9559603" lon="17.7215161">
        <ele>50.6066</ele>
        <time>2012-06-03T17:27:31Z</time>
      </trkpt>
      <trkpt lat="59.9559683" lon="17.7214409">
        <ele>50.6066</ele>
        <time>2012-06-03T17:27:33Z</time>
      </trkpt>
      <trkpt lat="59.9559173" lon="17.7212425">
        <ele>51.0872</ele>
        <time>2012-06-03T17:27:39Z</time>
      </trkpt>
      <trkpt lat="59.9557979" lon="17.7212447">
        <ele>53.0098</ele>
        <time>2012-06-03T17:27:45Z</time>
      </trkpt>
      <trkpt lat="59.9556971" lon="17.7213478">
        <ele>55.4131</ele>
        <time>2012-06-03T17:27:50Z</time>
      </trkpt>
      <trkpt lat="59.9555866" lon="17.7214372">
        <ele>56.8551</ele>
        <time>2012-06-03T17:27:55Z</time>
      </trkpt>
      <trkpt lat="59.9554862" lon="17.721483">
        <ele>56.8551</ele>
        <time>2012-06-03T17:28:00Z</time>
      </trkpt>
      <trkpt lat="59.9553911" lon="17.7214612">
        <ele>55.8938</ele>
        <time>2012-06-03T17:28:05Z</time>
      </trkpt>
      <trkpt lat="59.9552927" lon="17.7214646">
        <ele>56.8551</ele>
        <time>2012-06-03T17:28:10Z</time>
      </trkpt>
      <trkpt lat="59.9551771" lon="17.7213994">
        <ele>56.3745</ele>
        <time>2012-06-03T17:28:15Z</time>
      </trkpt>
      <trkpt lat="59.955004" lon="17.721339">
        <ele>53.4905</ele>
        <time>2012-06-03T17:28:21Z</time>
      </trkpt>
      <trkpt lat="59.9549088" lon="17.7212452">
        <ele>53.0098</ele>
        <time>2012-06-03T17:28:26Z</time>
      </trkpt>
      <trkpt lat="59.9548367" lon="17.7210264">
        <ele>50.6066</ele>
        <time>2012-06-03T17:28:31Z</time>
      </trkpt>
      <trkpt lat="59.9547999" lon="17.7208104">
        <ele>50.6066</ele>
        <time>2012-06-03T17:28:35Z</time>
      </trkpt>
      <trkpt lat="59.9548489" lon="17.7206194">
        <ele>48.2034</ele>
        <time>2012-06-03T17:28:40Z</time>
      </trkpt>
      <trkpt lat="59.9549332" lon="17.7204754">
        <ele>51.0872</ele>
        <time>2012-06-03T17:28:45Z</time>
      </trkpt>
      <trkpt lat="59.9549698" lon="17.720435">
        <ele>51.5679</ele>
        <time>2012-06-03T17:28:47Z</time>
      </trkpt>
      <trkpt lat="59.9551526" lon="17.7203002">
        <ele>55.8938</ele>
        <time>2012-06-03T17:28:55Z</time>
      </trkpt>
      <trkpt lat="59.9552846" lon="17.7201756">
        <ele>61.6617</ele>
        <time>2012-06-03T17:29:01Z</time>
      </trkpt>
      <trkpt lat="59.9553827" lon="17.7200764">
        <ele>62.1423</ele>
        <time>2012-06-03T17:29:06Z</time>
      </trkpt>
      <trkpt lat="59.9554687" lon="17.7199757">
        <ele>62.1423</ele>
        <time>2012-06-03T17:29:11Z</time>
      </trkpt>
      <trkpt lat="59.9556083" lon="17.7198926">
        <ele>62.6229</ele>
        <time>2012-06-03T17:29:18Z</time>
      </trkpt>
      <trkpt lat="59.9557132" lon="17.7198464">
        <ele>60.2197</ele>
        <time>2012-06-03T17:29:23Z</time>
      </trkpt>
      <trkpt lat="59.9558148" lon="17.7197407">
        <ele>59.2584</ele>
        <time>2012-06-03T17:29:28Z</time>
      </trkpt>
      <trkpt lat="59.955911" lon="17.7196264">
        <ele>58.2971</ele>
        <time>2012-06-03T17:29:33Z</time>
      </trkpt>
      <trkpt lat="59.9559754" lon="17.7194814">
        <ele>58.2971</ele>
        <time>2012-06-03T17:29:37Z</time>
      </trkpt>
      <trkpt lat="59.9560503" lon="17.7193953">
        <ele>57.8165</ele>
        <time>2012-06-03T17:29:41Z</time>
      </trkpt>
      <trkpt lat="59.9561633" lon="17.7192426">
        <ele>55.8938</ele>
        <time>2012-06-03T17:29:46Z</time>
      </trkpt>
      <trkpt lat="59.9562695" lon="17.7189562">
        <ele>55.4131</ele>
        <time>2012-06-03T17:29:53Z</time>
      </trkpt>
      <trkpt lat="59.9562958" lon="17.7187283">
        <ele>53.9712</ele>
        <time>2012-06-03T17:29:58Z</time>
      </trkpt>
      <trkpt lat="59.9562118" lon="17.7184811">
        <ele>53.0098</ele>
        <time>2012-06-03T17:30:03Z</time>
      </trkpt>
      <trkpt lat="59.956125" lon="17.7182423">
        <ele>53.0098</ele>
        <time>2012-06-03T17:30:08Z</time>
      </trkpt>
      <trkpt lat="59.956001" lon="17.7179974">
        <ele>53.4905</ele>
        <time>2012-06-03T17:30:14Z</time>
      </trkpt>
      <trkpt lat="59.9559162" lon="17.7177927">
        <ele>53.0098</ele>
        <time>2012-06-03T17:30:19Z</time>
      </trkpt>
      <trkpt lat="59.9558789" lon="17.7176917">
        <ele>52.5292</ele>
        <time>2012-06-03T17:30:22Z</time>
      </trkpt>
      <trkpt lat="59.9557868" lon="17.7174771">
        <ele>52.5292</ele>
        <time>2012-06-03T17:30:29Z</time>
      </trkpt>
      <trkpt lat="59.9556862" lon="17.7172068">
        <ele>51.0872</ele>
        <time>2012-06-03T17:30:35Z</time>
      </trkpt>
      <trkpt lat="59.9556298" lon="17.7169586">
        <ele>50.126</ele>
        <time>2012-06-03T17:30:40Z</time>
      </trkpt>
      <trkpt lat="59.9556053" lon="17.7167699">
        <ele>49.1646</ele>
        <time>2012-06-03T17:30:44Z</time>
      </trkpt>
      <trkpt lat="59.9555584" lon="17.7164786">
        <ele>49.1646</ele>
        <time>2012-06-03T17:30:50Z</time>
      </trkpt>
      <trkpt lat="59.9555676" lon="17.716295">
        <ele>48.2034</ele>
        <time>2012-06-03T17:30:54Z</time>
      </trkpt>
      <trkpt lat="59.9555118" lon="17.7159268">
        <ele>47.7225</ele>
        <time>2012-06-03T17:31:00Z</time>
      </trkpt>
      <trkpt lat="59.9554873" lon="17.715702">
        <ele>47.2418</ele>
        <time>2012-06-03T17:31:04Z</time>
      </trkpt>
      <trkpt lat="59.9554635" lon="17.7153886">
        <ele>48.2034</ele>
        <time>2012-06-03T17:31:10Z</time>
      </trkpt>
      <trkpt lat="59.9554423" lon="17.7151209">
        <ele>48.2034</ele>
        <time>2012-06-03T17:31:15Z</time>
      </trkpt>
      <trkpt lat="59.9554359" lon="17.7150089">
        <ele>47.7225</ele>
        <time>2012-06-03T17:31:17Z</time>
      </trkpt>
      <trkpt lat="59.9554353" lon="17.7149607">
        <ele>48.2034</ele>
        <time>2012-06-03T17:31:20Z</time>
      </trkpt>
      <trkpt lat="59.9554723" lon="17.7148724">
        <ele>51.0872</ele>
        <time>2012-06-03T17:31:26Z</time>
      </trkpt>
      <trkpt lat="59.9554682" lon="17.7148799">
        <ele>50.126</ele>
        <time>2012-06-03T17:31:28Z</time>
      </trkpt>
    </trkseg>
  </trk>
</gpx>